Time;durP1;ratioP1;P1;durP2;ratioP2;P2;SDS_P1;SDS_P2;PMS_P1;PMS_P2;Temp;Humidity;BMP_temperature;BMP_pressure;BME280_temperature;BME280_humidity;BME280_pressure;Samples;Min_cycle;Max_cycle;Signal;HPM_P1;HPM_P2
2021/05/08 00:02:07;;;;;;;8.60;1.33;;;;;;;;;;4944906;28;20573;-55
2021/05/08 00:04:33;;;;;;;9.38;2.13;;;;;;;;;;4940716;28;20059;-57
2021/05/08 00:06:59;;;;;;;13.05;1.80;;;;;;;;;;4948947;28;20090;-58
2021/05/08 00:09:25;;;;;;;10.82;1.42;;;;;;;;;;4948945;28;20055;-57
2021/05/08 00:11:54;;;;;;;9.20;1.65;;;;;;;;;;4947355;28;20062;-58
2021/05/08 00:14:20;;;;;;;8.32;1.40;;;;;;;;;;4944458;28;20050;-59
2021/05/08 00:16:46;;;;;;;11.52;1.60;;;;;;;;;;4946664;28;20043;-57
2021/05/08 00:19:12;;;;;;;6.50;1.50;;;;;;;;;;4948637;28;20039;-57
2021/05/08 00:21:38;;;;;;;7.93;1.63;;;;;;;;;;4947851;28;20789;-57
2021/05/08 00:24:04;;;;;;;7.70;1.27;;;;;;;;;;4945358;28;20121;-59
2021/05/08 00:26:30;;;;;;;7.75;1.25;;;;;;;;;;4922816;28;20130;-56
2021/05/08 00:28:57;;;;;;;10.93;1.50;;;;;;;;;;4948586;28;20097;-58
2021/05/08 00:31:23;;;;;;;9.88;1.33;;;;;;;;;;4944493;28;20198;-56
2021/05/08 00:33:49;;;;;;;8.57;1.40;;;;;;;;;;4947259;28;20058;-58
2021/05/08 00:36:15;;;;;;;8.70;1.40;;;;;;;;;;4947545;28;20046;-57
2021/05/08 00:38:40;;;;;;;9.57;1.55;;;;;;;;;;4945256;28;20035;-57
2021/05/08 00:41:06;;;;;;;7.90;1.30;;;;;;;;;;4944660;28;20397;-56
2021/05/08 00:43:32;;;;;;;15.63;2.75;;;;;;;;;;4945431;28;20100;-58
2021/05/08 00:45:58;;;;;;;14.82;5.95;;;;;;;;;;4945498;28;20434;-56
2021/05/08 00:48:24;;;;;;;15.88;4.35;;;;;;;;;;4943940;28;20079;-58
2021/05/08 00:50:52;;;;;;;10.35;2.53;;;;;;;;;;4945499;28;20474;-58
2021/05/08 00:53:18;;;;;;;13.02;1.83;;;;;;;;;;4945097;28;20047;-56
2021/05/08 00:55:44;;;;;;;9.35;1.65;;;;;;;;;;4952868;28;20103;-57
2021/05/08 00:58:10;;;;;;;11.73;2.00;;;;;;;;;;4947416;28;20043;-59
2021/05/08 01:00:37;;;;;;;11.27;1.90;;;;;;;;;;4945396;28;20104;-56
2021/05/08 01:03:03;;;;;;;14.25;2.58;;;;;;;;;;4946174;28;20039;-57
2021/05/08 01:05:32;;;;;;;8.60;2.40;;;;;;;;;;4945861;28;20066;-57
2021/05/08 01:07:58;;;;;;;19.42;2.70;;;;;;;;;;4920306;28;20097;-57
2021/05/08 01:10:24;;;;;;;11.35;2.60;;;;;;;;;;4945082;28;20089;-56
2021/05/08 01:12:50;;;;;;;11.90;2.25;;;;;;;;;;4943998;28;20091;-58
2021/05/08 01:15:16;;;;;;;14.90;2.40;;;;;;;;;;4944770;28;22098;-58
2021/05/08 01:17:42;;;;;;;10.63;3.10;;;;;;;;;;4947748;28;20125;-57
2021/05/08 01:20:10;;;;;;;13.23;2.78;;;;;;;;;;4960043;28;20095;-57
2021/05/08 01:22:35;;;;;;;11.73;2.60;;;;;;;;;;4962341;28;20042;-57
2021/05/08 01:25:04;;;;;;;8.80;2.25;;;;;;;;;;4961706;28;20035;-56
2021/05/08 01:27:29;;;;;;;15.50;3.00;;;;;;;;;;4963146;28;20101;-57
2021/05/08 01:29:55;;;;;;;13.15;2.47;;;;;;;;;;4952029;28;20047;-54
2021/05/08 01:32:21;;;;;;;15.07;2.70;;;;;;;;;;4946825;28;20042;-58
2021/05/08 01:34:47;;;;;;;18.50;3.50;;;;;;;;;;4932545;28;20745;-57
2021/05/08 01:37:13;;;;;;;14.48;3.60;;;;;;;;;;4926189;28;20086;-59
2021/05/08 01:39:38;;;;;;;14.18;3.53;;;;;;;;;;4925936;28;20753;-55
2021/05/08 01:42:04;;;;;;;13.20;2.35;;;;;;;;;;4926338;28;20094;-58
2021/05/08 01:44:30;;;;;;;15.77;2.35;;;;;;;;;;4924891;28;20073;-59
2021/05/08 01:46:56;;;;;;;9.35;2.25;;;;;;;;;;4918247;28;20055;-56
2021/05/08 01:49:22;;;;;;;14.65;2.25;;;;;;;;;;4924552;28;20040;-58
2021/05/08 01:51:48;;;;;;;13.73;2.15;;;;;;;;;;4925185;28;20039;-57
2021/05/08 01:54:15;;;;;;;10.15;2.60;;;;;;;;;;4923682;28;20533;-59
2021/05/08 01:56:40;;;;;;;10.35;2.47;;;;;;;;;;4934298;28;20647;-58
2021/05/08 01:59:06;;;;;;;13.68;2.42;;;;;;;;;;4924791;28;20047;-59
2021/05/08 02:01:32;;;;;;;10.35;2.03;;;;;;;;;;4925560;28;20516;-58
2021/05/08 02:03:58;;;;;;;10.82;2.05;;;;;;;;;;4925586;28;20042;-58
2021/05/08 02:06:24;;;;;;;11.38;2.22;;;;;;;;;;4924226;28;20056;-57
2021/05/08 02:08:50;;;;;;;19.50;6.28;;;;;;;;;;4924705;28;20130;-59
2021/05/08 02:11:15;;;;;;;34.15;6.75;;;;;;;;;;4928511;28;20039;-55
2021/05/08 02:13:41;;;;;;;23.67;2.60;;;;;;;;;;4933240;28;20090;-56
2021/05/08 02:16:07;;;;;;;12.15;2.00;;;;;;;;;;4923898;28;20066;-56
2021/05/08 02:18:33;;;;;;;10.07;2.22;;;;;;;;;;4925030;28;20457;-55
2021/05/08 02:20:59;;;;;;;18.20;2.28;;;;;;;;;;4924717;28;20047;-55
2021/05/08 02:23:25;;;;;;;16.30;2.22;;;;;;;;;;4922326;29;20044;-54
2021/05/08 02:25:51;;;;;;;13.10;2.28;;;;;;;;;;4926281;28;20039;-57
2021/05/08 02:28:17;;;;;;;16.00;2.50;;;;;;;;;;4922565;29;20047;-55
2021/05/08 02:30:42;;;;;;;11.02;1.80;;;;;;;;;;4920503;29;20580;-56
2021/05/08 02:33:09;;;;;;;12.90;2.15;;;;;;;;;;4927121;28;20550;-57
2021/05/08 02:35:35;;;;;;;9.07;1.90;;;;;;;;;;4939492;28;20039;-57
2021/05/08 02:38:02;;;;;;;11.07;2.22;;;;;;;;;;4943884;28;20035;-54
2021/05/08 02:40:29;;;;;;;10.55;1.73;;;;;;;;;;4945435;28;20098;-55
2021/05/08 02:42:55;;;;;;;18.73;1.85;;;;;;;;;;4941560;28;20044;-55
2021/05/08 02:45:21;;;;;;;11.85;2.00;;;;;;;;;;4943661;28;20113;-53
2021/05/08 02:47:48;;;;;;;16.35;1.88;;;;;;;;;;4943270;28;20089;-56
2021/05/08 02:50:16;;;;;;;13.35;1.83;;;;;;;;;;4945262;28;20059;-56
2021/05/08 02:52:42;;;;;;;14.50;1.58;;;;;;;;;;4938029;28;20069;-56
2021/05/08 02:55:08;;;;;;;10.50;2.00;;;;;;;;;;4946918;28;20030;-55
2021/05/08 02:57:35;;;;;;;10.02;1.63;;;;;;;;;;4942625;28;20054;-55
2021/05/08 03:00:01;;;;;;;6.57;1.50;;;;;;;;;;4941345;28;20058;-56
2021/05/08 03:02:26;;;;;;;7.88;1.13;;;;;;;;;;4943799;28;20187;-55
2021/05/08 03:04:52;;;;;;;11.85;2.25;;;;;;;;;;4943466;28;20523;-57
2021/05/08 03:07:18;;;;;;;10.57;1.60;;;;;;;;;;4943278;28;20051;-57
2021/05/08 03:09:44;;;;;;;5.63;1.50;;;;;;;;;;4947135;28;20035;-55
2021/05/08 03:12:10;;;;;;;9.10;2.53;;;;;;;;;;4943710;28;20724;-55
2021/05/08 03:14:36;;;;;;;15.25;2.20;;;;;;;;;;4940219;28;20411;-54
2021/05/08 03:17:02;;;;;;;11.27;1.98;;;;;;;;;;4945452;28;20043;-55
2021/05/08 03:19:28;;;;;;;12.80;2.30;;;;;;;;;;4951189;28;20153;-55
2021/05/08 03:21:55;;;;;;;9.73;2.30;;;;;;;;;;4961035;28;20046;-56
2021/05/08 03:24:20;;;;;;;6.70;2.35;;;;;;;;;;4958724;28;20047;-56
2021/05/08 03:26:46;;;;;;;10.75;2.42;;;;;;;;;;4957933;28;20550;-56
2021/05/08 03:29:12;;;;;;;10.25;3.03;;;;;;;;;;4958929;28;20048;-56
2021/05/08 03:31:38;;;;;;;8.93;2.70;;;;;;;;;;4959400;28;20043;-55
2021/05/08 03:34:04;;;;;;;11.07;2.63;;;;;;;;;;4960473;28;20133;-57
2021/05/08 03:36:30;;;;;;;11.07;3.95;;;;;;;;;;4957574;28;20046;-56
2021/05/08 03:38:56;;;;;;;7.97;2.10;;;;;;;;;;4957399;28;20130;-55
2021/05/08 03:41:21;;;;;;;10.10;2.15;;;;;;;;;;4955750;28;20513;-56
2021/05/08 03:43:47;;;;;;;5.88;2.00;;;;;;;;;;4941499;28;20118;-53
2021/05/08 03:46:13;;;;;;;10.60;2.60;;;;;;;;;;4937359;28;20051;-56
2021/05/08 03:48:39;;;;;;;6.97;2.10;;;;;;;;;;4941188;28;21995;-55
2021/05/08 03:51:05;;;;;;;7.88;2.25;;;;;;;;;;4941551;28;20586;-55
2021/05/08 03:53:31;;;;;;;7.40;2.10;;;;;;;;;;4939559;28;20447;-56
2021/05/08 03:55:57;;;;;;;10.60;2.10;;;;;;;;;;4939641;28;20119;-52
2021/05/08 03:58:28;;;;;;;7.30;2.17;;;;;;;;;;4941233;28;20039;-56
2021/05/08 04:00:54;;;;;;;7.88;2.13;;;;;;;;;;4944111;28;20098;-55
2021/05/08 04:03:20;;;;;;;11.07;2.10;;;;;;;;;;4944539;28;20500;-56
2021/05/08 04:05:46;;;;;;;8.45;1.92;;;;;;;;;;4943972;28;20038;-57
2021/05/08 04:08:12;;;;;;;5.75;1.92;;;;;;;;;;4942313;28;20054;-58
2021/05/08 04:10:38;;;;;;;7.18;1.95;;;;;;;;;;4941033;28;20465;-55
2021/05/08 04:13:04;;;;;;;9.15;2.10;;;;;;;;;;4941432;28;20232;-53
2021/05/08 04:15:29;;;;;;;7.50;1.75;;;;;;;;;;4939570;28;20043;-55
2021/05/08 04:17:55;;;;;;;8.45;2.17;;;;;;;;;;4941252;28;22042;-56
2021/05/08 04:20:21;;;;;;;17.10;2.50;;;;;;;;;;4939855;28;20042;-57
2021/05/08 04:22:47;;;;;;;8.27;2.08;;;;;;;;;;4943111;28;20047;-56
2021/05/08 04:25:13;;;;;;;5.50;2.03;;;;;;;;;;4936154;28;20040;-53
2021/05/08 04:27:40;;;;;;;12.95;2.30;;;;;;;;;;4941547;28;20154;-56
2021/05/08 04:30:06;;;;;;;9.43;2.20;;;;;;;;;;4941990;28;20085;-54
2021/05/08 04:32:32;;;;;;;8.90;2.20;;;;;;;;;;4958327;28;20034;-56
2021/05/08 04:34:57;;;;;;;9.27;1.95;;;;;;;;;;4957880;28;20069;-56
2021/05/08 04:37:23;;;;;;;10.65;2.33;;;;;;;;;;4956853;28;20140;-54
2021/05/08 04:39:49;;;;;;;12.02;2.25;;;;;;;;;;4957417;28;20039;-56
2021/05/08 04:42:15;;;;;;;8.80;2.30;;;;;;;;;;4959713;28;20054;-52
2021/05/08 04:44:41;;;;;;;11.00;3.20;;;;;;;;;;4947748;28;20596;-56
2021/05/08 04:47:06;;;;;;;11.35;3.08;;;;;;;;;;4961229;28;20748;-53
2021/05/08 04:49:32;;;;;;;9.23;3.47;;;;;;;;;;4958401;28;20134;-56
2021/05/08 04:51:58;;;;;;;10.07;2.78;;;;;;;;;;4958548;28;20038;-56
2021/05/08 04:54:24;;;;;;;13.68;2.50;;;;;;;;;;4961285;28;20063;-54
2021/05/08 04:56:50;;;;;;;6.13;2.13;;;;;;;;;;4958642;28;20046;-54
2021/05/08 04:59:16;;;;;;;9.10;2.45;;;;;;;;;;4962410;28;20047;-56
2021/05/08 05:01:42;;;;;;;8.18;2.63;;;;;;;;;;4962846;28;20039;-58
2021/05/08 05:04:08;;;;;;;25.63;2.20;;;;;;;;;;4963059;28;20042;-55
2021/05/08 05:06:34;;;;;;;7.65;1.23;;;;;;;;;;4962270;28;20047;-52
2021/05/08 05:09:00;;;;;;;5.18;0.65;;;;;;;;;;4964361;28;20231;-55
2021/05/08 05:11:26;;;;;;;4.90;0.80;;;;;;;;;;4963745;28;20042;-55
2021/05/08 05:13:51;;;;;;;6.03;0.80;;;;;;;;;;4962323;28;20067;-55
2021/05/08 05:16:17;;;;;;;12.13;1.15;;;;;;;;;;4960754;28;20145;-56
2021/05/08 05:18:43;;;;;;;6.65;0.90;;;;;;;;;;4950874;28;20701;-54
2021/05/08 05:21:09;;;;;;;5.88;0.90;;;;;;;;;;4943757;28;20423;-55
2021/05/08 05:23:35;;;;;;;11.75;1.30;;;;;;;;;;4936255;28;20618;-57
2021/05/08 05:26:00;;;;;;;13.68;1.30;;;;;;;;;;4943691;28;20034;-53
2021/05/08 05:28:27;;;;;;;5.03;1.33;;;;;;;;;;4942544;28;20594;-55
2021/05/08 05:30:53;;;;;;;3.30;0.90;;;;;;;;;;4944724;28;20146;-55
2021/05/08 05:33:19;;;;;;;4.15;1.00;;;;;;;;;;4943137;28;20142;-55
2021/05/08 05:35:49;;;;;;;3.22;1.05;;;;;;;;;;4944937;28;20109;-56
2021/05/08 05:38:15;;;;;;;3.17;1.00;;;;;;;;;;4943281;28;20504;-55
2021/05/08 05:40:41;;;;;;;3.13;0.93;;;;;;;;;;4942294;28;20039;-54
2021/05/08 05:43:06;;;;;;;4.75;0.90;;;;;;;;;;4941420;28;20042;-55
2021/05/08 05:45:32;;;;;;;2.85;0.88;;;;;;;;;;4943738;28;20040;-56
2021/05/08 05:47:59;;;;;;;2.13;0.70;;;;;;;;;;4942838;28;20046;-55
2021/05/08 05:50:25;;;;;;;6.45;0.80;;;;;;;;;;4945313;28;20074;-55
2021/05/08 05:52:53;;;;;;;2.35;0.70;;;;;;;;;;4941958;28;20229;-52
2021/05/08 05:55:20;;;;;;;1.85;0.70;;;;;;;;;;4944088;28;20049;-56
2021/05/08 05:57:46;;;;;;;2.78;0.80;;;;;;;;;;4942532;28;20034;-56
2021/05/08 06:00:12;;;;;;;2.22;0.60;;;;;;;;;;4944382;28;20941;-54
2021/05/08 06:02:38;;;;;;;1.88;0.60;;;;;;;;;;4943462;28;20046;-55
2021/05/08 06:05:04;;;;;;;3.22;0.90;;;;;;;;;;4946067;28;20035;-56
2021/05/08 06:07:29;;;;;;;2.35;0.77;;;;;;;;;;4942100;28;20456;-58
2021/05/08 06:09:55;;;;;;;2.70;0.60;;;;;;;;;;4945627;28;20513;-57
2021/05/08 06:12:21;;;;;;;2.42;0.77;;;;;;;;;;4946687;28;20047;-53
2021/05/08 06:14:47;;;;;;;3.15;0.63;;;;;;;;;;4944647;28;20198;-55
2021/05/08 06:17:13;;;;;;;2.40;0.70;;;;;;;;;;4946239;28;20058;-57
2021/05/08 06:19:39;;;;;;;1.92;0.70;;;;;;;;;;4941851;28;20051;-55
2021/05/08 06:22:04;;;;;;;2.60;0.90;;;;;;;;;;4941996;28;20111;-56
2021/05/08 06:24:30;;;;;;;4.50;0.88;;;;;;;;;;4939643;28;20032;-55
2021/05/08 06:26:56;;;;;;;4.03;1.10;;;;;;;;;;4944012;28;22126;-55
2021/05/08 06:29:22;;;;;;;3.10;1.15;;;;;;;;;;4943222;28;20027;-54
2021/05/08 06:31:47;;;;;;;3.40;1.02;;;;;;;;;;4941126;28;20070;-55
2021/05/08 06:34:13;;;;;;;4.13;1.92;;;;;;;;;;4940886;28;20114;-54
2021/05/08 06:36:39;;;;;;;5.80;1.50;;;;;;;;;;4941700;28;20224;-54
2021/05/08 06:39:05;;;;;;;3.42;1.20;;;;;;;;;;4943536;28;20043;-55
2021/05/08 06:41:31;;;;;;;2.90;1.17;;;;;;;;;;4938826;28;20039;-55
2021/05/08 06:43:56;;;;;;;3.60;1.15;;;;;;;;;;4942833;28;20047;-53
2021/05/08 06:46:22;;;;;;;3.78;1.30;;;;;;;;;;4941777;28;20430;-55
2021/05/08 06:48:48;;;;;;;7.15;0.98;;;;;;;;;;4942106;28;21069;-55
2021/05/08 06:51:14;;;;;;;2.80;1.00;;;;;;;;;;4943905;28;20053;-53
2021/05/08 06:53:40;;;;;;;2.90;1.00;;;;;;;;;;4955938;28;20238;-55
2021/05/08 06:56:06;;;;;;;4.03;0.90;;;;;;;;;;4961584;28;20185;-56
2021/05/08 06:58:32;;;;;;;4.55;0.95;;;;;;;;;;4958252;28;20490;-55
2021/05/08 07:00:58;;;;;;;2.33;0.82;;;;;;;;;;4958687;28;20051;-54
2021/05/08 07:03:24;;;;;;;1.75;0.50;;;;;;;;;;4957572;28;20062;-56
2021/05/08 07:05:49;;;;;;;1.90;0.50;;;;;;;;;;4956910;28;20042;-56
2021/05/08 07:08:15;;;;;;;2.95;0.50;;;;;;;;;;4957246;28;20052;-56
2021/05/08 07:10:45;;;;;;;2.45;0.50;;;;;;;;;;4959263;28;20085;-54
2021/05/08 07:13:11;;;;;;;2.38;0.50;;;;;;;;;;4962330;28;20120;-53
2021/05/08 07:15:37;;;;;;;2.15;0.50;;;;;;;;;;4958721;28;20073;-55
2021/05/08 07:18:04;;;;;;;2.20;0.43;;;;;;;;;;4957585;28;20133;-54
2021/05/08 07:20:30;;;;;;;1.52;0.40;;;;;;;;;;4960283;28;20042;-54
2021/05/08 07:22:56;;;;;;;1.25;0.60;;;;;;;;;;4959680;28;20038;-54
2021/05/08 07:25:22;;;;;;;1.85;0.52;;;;;;;;;;4958644;28;20037;-54
2021/05/08 07:27:48;;;;;;;0.85;0.40;;;;;;;;;;4959405;28;20096;-55
2021/05/08 07:30:14;;;;;;;0.57;0.30;;;;;;;;;;4962305;28;20042;-55
2021/05/08 07:32:40;;;;;;;5.10;0.45;;;;;;;;;;4958671;28;20053;-53
2021/05/08 07:35:06;;;;;;;0.35;0.30;;;;;;;;;;4962774;28;20050;-55
2021/05/08 07:37:32;;;;;;;1.40;0.40;;;;;;;;;;4957935;28;20046;-52
2021/05/08 07:40:00;;;;;;;3.25;0.50;;;;;;;;;;4957746;28;21035;-58
2021/05/08 07:42:26;;;;;;;1.83;0.43;;;;;;;;;;4961241;28;20030;-55
2021/05/08 07:44:52;;;;;;;1.02;0.40;;;;;;;;;;4950145;28;21392;-56
2021/05/08 07:47:18;;;;;;;0.70;0.40;;;;;;;;;;4958734;28;20042;-57
2021/05/08 07:49:45;;;;;;;1.10;0.40;;;;;;;;;;4960843;28;20045;-54
2021/05/08 07:52:10;;;;;;;1.35;0.40;;;;;;;;;;4958131;28;20042;-54
2021/05/08 07:54:36;;;;;;;1.00;0.40;;;;;;;;;;4961635;28;20035;-56
2021/05/08 07:57:02;;;;;;;0.80;0.30;;;;;;;;;;4961506;28;20537;-56
2021/05/08 07:59:28;;;;;;;1.63;0.50;;;;;;;;;;4961798;28;20146;-56
2021/05/08 08:01:54;;;;;;;1.30;0.43;;;;;;;;;;4961342;28;20035;-55
2021/05/08 08:04:20;;;;;;;1.35;0.43;;;;;;;;;;4938880;28;20051;-56
2021/05/08 08:06:45;;;;;;;1.83;0.55;;;;;;;;;;4936763;28;20573;-55
2021/05/08 08:09:11;;;;;;;1.33;0.40;;;;;;;;;;4936491;28;20039;-54
2021/05/08 08:11:37;;;;;;;1.35;0.40;;;;;;;;;;4939257;28;20407;-57
2021/05/08 08:14:03;;;;;;;1.35;0.40;;;;;;;;;;4936641;28;20093;-54
2021/05/08 08:16:30;;;;;;;1.05;0.40;;;;;;;;;;4939775;28;20661;-54
2021/05/08 08:18:56;;;;;;;2.63;0.50;;;;;;;;;;4938791;28;20043;-57
2021/05/08 08:21:22;;;;;;;3.30;0.40;;;;;;;;;;4938086;28;20055;-57
2021/05/08 08:23:47;;;;;;;2.08;0.60;;;;;;;;;;4940007;28;20129;-55
2021/05/08 08:26:13;;;;;;;1.80;0.40;;;;;;;;;;4939512;28;20036;-56
2021/05/08 08:28:39;;;;;;;1.33;0.50;;;;;;;;;;4938754;28;20065;-54
2021/05/08 08:31:05;;;;;;;0.88;0.40;;;;;;;;;;4938736;28;20059;-55
2021/05/08 08:33:31;;;;;;;1.38;0.40;;;;;;;;;;4938800;28;20404;-54
2021/05/08 08:35:57;;;;;;;1.35;0.43;;;;;;;;;;4940984;28;20117;-54
2021/05/08 08:38:23;;;;;;;1.33;0.40;;;;;;;;;;4939430;28;20054;-53
2021/05/08 08:40:49;;;;;;;1.88;0.50;;;;;;;;;;4941824;28;20054;-55
2021/05/08 08:43:15;;;;;;;1.55;0.40;;;;;;;;;;4941202;28;20042;-53
2021/05/08 08:45:41;;;;;;;1.67;0.50;;;;;;;;;;4940361;28;20031;-54
2021/05/08 08:48:07;;;;;;;1.77;0.57;;;;;;;;;;4941461;28;20051;-55
2021/05/08 08:50:37;;;;;;;1.40;0.50;;;;;;;;;;4938379;28;20077;-55
2021/05/08 08:53:06;;;;;;;1.15;0.50;;;;;;;;;;4939716;28;20035;-55
2021/05/08 08:55:36;;;;;;;1.58;0.50;;;;;;;;;;4939776;28;20095;-55
2021/05/08 08:58:06;;;;;;;1.17;0.50;;;;;;;;;;4939990;28;20047;-56
2021/05/08 09:00:32;;;;;;;1.08;0.47;;;;;;;;;;4941212;28;20138;-55
2021/05/08 09:02:57;;;;;;;3.92;0.50;;;;;;;;;;4940709;28;20063;-54
2021/05/08 09:08:07;;;;;;;1.52;0.50;;;;;;;;;;5151437;23;20282;-57
2021/05/08 09:10:33;;;;;;;1.73;0.40;;;;;;;;;;4892024;28;20107;-52
2021/05/08 09:13:03;;;;;;;1.10;0.40;;;;;;;;;;4898055;28;20063;-56
2021/05/08 09:15:37;;;;;;;3.30;0.40;;;;;;;;;;4904615;28;20462;-53
2021/05/08 09:18:03;;;;;;;1.30;0.40;;;;;;;;;;4909039;28;20047;-55
2021/05/08 09:20:55;;;;;;;1.00;0.40;;;;;;;;;;4909577;28;20040;-51
2021/05/08 09:23:22;;;;;;;1.92;0.60;;;;;;;;;;4904229;28;20479;-56
2021/05/08 09:26:06;;;;;;;1.27;0.40;;;;;;;;;;4908879;28;20063;-54
2021/05/08 09:28:35;;;;;;;1.80;0.40;;;;;;;;;;4908915;28;20101;-53
2021/05/08 09:31:02;;;;;;;0.65;0.40;;;;;;;;;;4909794;28;20528;-55
2021/05/08 09:33:29;;;;;;;1.23;0.40;;;;;;;;;;4906872;28;20042;-53
2021/05/08 09:35:59;;;;;;;1.08;0.40;;;;;;;;;;4915661;28;20047;-54
2021/05/08 09:38:32;;;;;;;1.10;0.40;;;;;;;;;;4925081;28;21138;-55
2021/05/08 09:40:58;;;;;;;1.13;0.40;;;;;;;;;;4928026;28;20043;-55
2021/05/08 09:43:25;;;;;;;1.73;0.43;;;;;;;;;;4926873;29;20035;-55
2021/05/08 09:45:54;;;;;;;1.60;0.50;;;;;;;;;;4926784;28;20790;-52
2021/05/08 09:48:21;;;;;;;0.65;0.40;;;;;;;;;;4927325;28;20127;-56
2021/05/08 09:50:47;;;;;;;1.05;0.40;;;;;;;;;;4926324;28;20088;-55
2021/05/08 09:53:26;;;;;;;1.73;0.40;;;;;;;;;;4923212;28;21024;-54
2021/05/08 09:55:53;;;;;;;1.25;0.40;;;;;;;;;;4925285;28;20039;-56
2021/05/08 09:58:24;;;;;;;2.75;0.45;;;;;;;;;;4918448;28;20031;-54
2021/05/08 10:00:51;;;;;;;1.40;0.40;;;;;;;;;;4928583;28;20417;-56
2021/05/08 10:03:17;;;;;;;1.48;0.45;;;;;;;;;;4927289;28;20046;-52
2021/05/08 10:05:47;;;;;;;3.97;0.40;;;;;;;;;;4927726;28;20043;-53
2021/05/08 10:08:13;;;;;;;2.55;0.40;;;;;;;;;;4927581;29;20061;-54
2021/05/08 10:10:38;;;;;;;1.40;0.40;;;;;;;;;;4927569;28;20814;-55
2021/05/08 10:13:09;;;;;;;3.10;0.50;;;;;;;;;;4925830;29;20387;-54
2021/05/08 10:15:36;;;;;;;3.75;0.50;;;;;;;;;;4919242;28;20635;-57
2021/05/08 10:18:03;;;;;;;1.70;0.45;;;;;;;;;;4925891;28;20130;-54
2021/05/08 10:20:29;;;;;;;1.50;0.50;;;;;;;;;;4926804;28;20117;-56
2021/05/08 10:22:58;;;;;;;3.30;0.60;;;;;;;;;;4924632;28;20067;-53
2021/05/08 10:25:24;;;;;;;2.00;0.60;;;;;;;;;;4924958;28;20053;-53
2021/05/08 10:27:50;;;;;;;1.27;0.47;;;;;;;;;;4928545;28;20425;-52
2021/05/08 10:30:20;;;;;;;1.42;0.40;;;;;;;;;;4927576;28;20040;-53
2021/05/08 10:32:47;;;;;;;1.55;0.50;;;;;;;;;;4923359;28;20055;-52
2021/05/08 10:35:14;;;;;;;1.73;0.50;;;;;;;;;;4928955;28;20054;-54
2021/05/08 10:37:59;;;;;;;1.83;0.50;;;;;;;;;;4928615;28;20043;-55
2021/05/08 10:40:25;;;;;;;1.92;0.55;;;;;;;;;;4934432;28;20048;-55
2021/05/08 10:42:51;;;;;;;1.52;0.50;;;;;;;;;;4934588;29;20047;-55
2021/05/08 10:45:37;;;;;;;2.50;0.60;;;;;;;;;;4933493;28;20103;-53
2021/05/08 10:48:06;;;;;;;2.33;0.75;;;;;;;;;;4931998;28;20052;-53
2021/05/08 10:50:38;;;;;;;2.05;0.52;;;;;;;;;;4931953;28;20118;-51
2021/05/08 10:53:08;;;;;;;2.13;0.63;;;;;;;;;;4930027;28;21662;-56
2021/05/08 10:55:53;;;;;;;2.40;0.80;;;;;;;;;;4914895;29;20086;-53
2021/05/08 10:58:22;;;;;;;2.30;0.80;;;;;;;;;;4916627;29;20135;-55
2021/05/08 11:00:51;;;;;;;2.22;0.73;;;;;;;;;;4912477;29;20122;-54
2021/05/08 11:03:18;;;;;;;2.67;0.95;;;;;;;;;;4930534;29;20066;-54
2021/05/08 11:05:53;;;;;;;2.47;0.85;;;;;;;;;;4932275;29;20043;-55
2021/05/08 11:08:25;;;;;;;2.70;1.02;;;;;;;;;;4930354;28;20066;-55
2021/05/08 11:10:57;;;;;;;2.25;1.00;;;;;;;;;;4931347;28;20094;-57
2021/05/08 11:13:27;;;;;;;2.65;0.93;;;;;;;;;;4932013;28;20121;-55
2021/05/08 11:15:53;;;;;;;3.00;1.40;;;;;;;;;;4933762;28;20047;-54
2021/05/08 11:18:31;;;;;;;2.72;0.90;;;;;;;;;;4923961;28;20079;-54
2021/05/08 11:20:58;;;;;;;2.30;0.90;;;;;;;;;;4927536;29;20047;-55
2021/05/08 11:23:23;;;;;;;2.10;0.73;;;;;;;;;;4935391;28;20051;-54
2021/05/08 11:25:49;;;;;;;1.98;0.70;;;;;;;;;;4937592;28;20077;-51
2021/05/08 11:28:15;;;;;;;1.70;0.70;;;;;;;;;;4936049;28;20044;-53
2021/05/08 11:30:53;;;;;;;2.30;0.70;;;;;;;;;;4934449;28;20039;-52
2021/05/08 11:33:20;;;;;;;2.40;0.85;;;;;;;;;;4933538;28;20170;-53
2021/05/08 11:35:58;;;;;;;1.58;0.60;;;;;;;;;;4935611;28;20090;-54
2021/05/08 11:38:24;;;;;;;1.88;0.70;;;;;;;;;;4935029;28;20050;-55
2021/05/08 11:40:51;;;;;;;2.13;0.75;;;;;;;;;;4926337;28;20055;-55
2021/05/08 11:43:24;;;;;;;2.10;0.70;;;;;;;;;;4935052;28;20045;-59
2021/05/08 11:45:50;;;;;;;2.08;0.70;;;;;;;;;;4935356;28;20039;-53
2021/05/08 11:48:15;;;;;;;2.05;0.70;;;;;;;;;;4934937;28;20045;-52
2021/05/08 11:50:46;;;;;;;2.28;0.70;;;;;;;;;;4926147;28;20039;-53
2021/05/08 11:53:18;;;;;;;2.10;0.70;;;;;;;;;;4936329;28;20083;-54
2021/05/08 11:55:45;;;;;;;1.80;0.60;;;;;;;;;;4933971;28;20043;-52
2021/05/08 11:58:10;;;;;;;1.65;0.55;;;;;;;;;;4909898;28;20047;-53
2021/05/08 12:00:36;;;;;;;2.17;0.63;;;;;;;;;;4933243;28;20042;-53
2021/05/08 12:03:08;;;;;;;3.50;0.73;;;;;;;;;;4928623;28;20058;-53
2021/05/08 12:05:35;;;;;;;1.95;0.70;;;;;;;;;;4930666;28;20490;-51
2021/05/08 12:08:00;;;;;;;1.55;0.50;;;;;;;;;;4932328;28;20058;-54
2021/05/08 12:10:26;;;;;;;2.47;0.55;;;;;;;;;;4931077;28;20047;-52
2021/05/08 12:12:56;;;;;;;1.83;0.60;;;;;;;;;;4931403;28;20036;-54
2021/05/08 12:15:35;;;;;;;1.77;0.50;;;;;;;;;;4932824;28;20057;-53
2021/05/08 12:18:02;;;;;;;2.72;1.13;;;;;;;;;;4932218;28;20079;-55
2021/05/08 12:20:40;;;;;;;2.63;1.05;;;;;;;;;;4931194;28;20039;-53
2021/05/08 12:23:24;;;;;;;2.67;1.15;;;;;;;;;;4931535;28;20043;-55
2021/05/08 12:26:08;;;;;;;2.25;0.90;;;;;;;;;;4932888;28;20105;-56
2021/05/08 12:28:35;;;;;;;2.90;1.10;;;;;;;;;;4932414;28;20423;-54
2021/05/08 12:31:18;;;;;;;2.67;1.20;;;;;;;;;;4932206;28;20032;-57
2021/05/08 12:33:44;;;;;;;2.80;1.30;;;;;;;;;;4915534;28;20391;-56
2021/05/08 12:36:14;;;;;;;2.97;1.20;;;;;;;;;;4933007;28;20208;-56
2021/05/08 12:38:41;;;;;;;4.60;1.85;;;;;;;;;;4924189;28;20039;-55
2021/05/08 12:41:22;;;;;;;2.28;0.82;;;;;;;;;;4902205;29;20054;-56
2021/05/08 12:43:49;;;;;;;2.83;0.85;;;;;;;;;;4934048;28;20093;-56
2021/05/08 12:46:15;;;;;;;1.92;0.60;;;;;;;;;;4927390;28;20174;-57
2021/05/08 12:48:43;;;;;;;2.38;0.80;;;;;;;;;;4934627;28;20066;-56
2021/05/08 12:51:25;;;;;;;2.30;0.70;;;;;;;;;;4933337;28;20094;-57
2021/05/08 12:54:09;;;;;;;3.20;0.57;;;;;;;;;;4933500;28;20138;-56
2021/05/08 12:56:35;;;;;;;1.77;0.65;;;;;;;;;;4933378;28;20130;-58
2021/05/08 12:59:01;;;;;;;1.85;0.60;;;;;;;;;;4918543;28;20089;-55
2021/05/08 13:01:27;;;;;;;1.77;0.60;;;;;;;;;;4926293;29;20393;-57
2021/05/08 13:03:54;;;;;;;2.30;0.60;;;;;;;;;;4931641;28;20039;-55
2021/05/08 13:06:23;;;;;;;2.83;0.80;;;;;;;;;;4912823;28;20187;-56
2021/05/08 13:08:50;;;;;;;2.92;0.80;;;;;;;;;;4926792;28;20171;-57
2021/05/08 13:11:34;;;;;;;2.40;0.80;;;;;;;;;;4933151;28;20087;-56
2021/05/08 13:14:20;;;;;;;1.80;0.60;;;;;;;;;;4905451;29;20074;-56
2021/05/08 13:16:47;;;;;;;2.25;0.75;;;;;;;;;;4907064;29;20475;-56
2021/05/08 13:19:13;;;;;;;2.10;0.70;;;;;;;;;;4908428;29;20654;-55
2021/05/08 13:21:38;;;;;;;2.22;0.70;;;;;;;;;;4905436;29;20035;-56
2021/05/08 13:24:24;;;;;;;2.15;0.70;;;;;;;;;;4908503;29;20096;-53
2021/05/08 13:26:50;;;;;;;2.28;0.75;;;;;;;;;;4908478;29;20067;-57
2021/05/08 13:29:36;;;;;;;2.45;0.55;;;;;;;;;;4894641;29;20047;-58
2021/05/08 13:32:02;;;;;;;2.38;0.70;;;;;;;;;;4912148;29;20036;-56
2021/05/08 13:34:27;;;;;;;1.33;0.50;;;;;;;;;;4894146;29;20094;-54
2021/05/08 13:36:53;;;;;;;2.10;0.60;;;;;;;;;;4903706;29;20044;-56
2021/05/08 13:39:19;;;;;;;1.48;0.50;;;;;;;;;;4896106;29;20052;-55
2021/05/08 13:41:46;;;;;;;2.15;0.60;;;;;;;;;;4912668;29;20109;-56
2021/05/08 13:44:12;;;;;;;1.92;0.68;;;;;;;;;;4882785;29;20143;-54
2021/05/08 13:46:38;;;;;;;2.13;0.75;;;;;;;;;;4902540;29;25966;-56
2021/05/08 13:49:04;;;;;;;3.08;0.77;;;;;;;;;;4916457;29;20741;-56
2021/05/08 13:51:30;;;;;;;2.78;1.05;;;;;;;;;;4916354;29;20043;-54
2021/05/08 13:53:56;;;;;;;2.88;1.00;;;;;;;;;;4898581;29;20050;-56
2021/05/08 13:56:23;;;;;;;2.28;1.00;;;;;;;;;;4914475;29;20062;-55
2021/05/08 13:58:48;;;;;;;3.58;1.48;;;;;;;;;;4917266;29;20047;-54
2021/05/08 14:01:14;;;;;;;2.10;0.75;;;;;;;;;;4929010;28;20237;-54
2021/05/08 14:03:40;;;;;;;2.80;1.10;;;;;;;;;;4934288;28;20445;-55
2021/05/08 14:06:06;;;;;;;3.15;1.30;;;;;;;;;;4937223;28;20046;-52
2021/05/08 14:08:32;;;;;;;2.22;0.90;;;;;;;;;;4935498;28;20604;-56
2021/05/08 14:11:00;;;;;;;2.15;0.90;;;;;;;;;;4935488;28;20165;-54
2021/05/08 14:13:26;;;;;;;2.22;0.90;;;;;;;;;;4929707;28;20074;-56
2021/05/08 14:15:52;;;;;;;1.58;0.68;;;;;;;;;;4935717;28;20529;-54
2021/05/08 14:18:18;;;;;;;1.73;0.60;;;;;;;;;;4912672;29;20036;-57
2021/05/08 14:20:44;;;;;;;2.22;0.65;;;;;;;;;;4934445;28;20108;-56
2021/05/08 14:23:10;;;;;;;2.15;0.73;;;;;;;;;;4934711;28;20058;-56
2021/05/08 14:25:35;;;;;;;2.30;0.80;;;;;;;;;;4933511;28;20489;-57
2021/05/08 14:28:01;;;;;;;2.20;0.70;;;;;;;;;;4935362;28;20052;-57
2021/05/08 14:30:27;;;;;;;1.40;0.60;;;;;;;;;;4924128;28;20632;-54
2021/05/08 14:32:54;;;;;;;2.33;0.93;;;;;;;;;;4933258;29;20046;-56
2021/05/08 14:35:20;;;;;;;2.20;0.70;;;;;;;;;;4934572;28;20043;-57
2021/05/08 14:37:45;;;;;;;2.58;0.93;;;;;;;;;;4935662;28;20050;-54
2021/05/08 14:40:11;;;;;;;2.70;0.95;;;;;;;;;;4935319;28;20415;-56
2021/05/08 14:42:37;;;;;;;2.03;0.70;;;;;;;;;;4931714;29;20038;-56
2021/05/08 14:45:04;;;;;;;2.45;0.93;;;;;;;;;;4935502;28;20043;-58